Ninaview, Colorado
Current Conditions -  °F | °C
As of 3:53 AM on Sunday 21 Dec 2014 (Local Time) from KLHX Reporting Station
Clear Clear  
Wind Chill: -8°   Ceiling: Unl
Heat Index: -3°   Visibility: 10mi
Dew Point: -6°   Wind: 8mph
Humidity: 84%   Direction: 260°W
Pressure: 29.85"   Gusts: NA
Location:  37.8567°N, 103.111°W
Report Text: KLHX 211053Z AUTO 26007KT 10SM CLR M03/M06 A2985 RMK AO2 SLP112 T10331056
Loading
Personal Weather Stations






























Interactive Weather Map New forecast layout! Learn more

10-Day Weather Forecast

Advertisements
Track Severe Weather on mobile